Time;durP1;ratioP1;P1;durP2;ratioP2;P2;SDS_P1;SDS_P2;PMS_P1;PMS_P2;Temp;Humidity;BMP_temperature;BMP_pressure;BME280_temperature;BME280_humidity;BME280_pressure;Samples;Min_cycle;Max_cycle;Signal;HPM_P1;HPM_P2
2023/06/16 00:00:16;;;;;;;6.55;4.47;;;;;;;18.21;77.79;95964.72;5116688;28;20102;-68
2023/06/16 00:02:43;;;;;;;7.00;4.00;;;;;;;18.23;77.65;95969.91;5116503;28;20090;-69
2023/06/16 00:05:11;;;;;;;5.18;4.68;;;;;;;18.25;78.09;95973.28;5116444;27;20043;-68
2023/06/16 00:07:38;;;;;;;6.43;4.22;;;;;;;18.24;77.41;95972.44;5116459;28;20487;-66
2023/06/16 00:10:07;;;;;;;5.28;4.50;;;;;;;18.16;77.77;95959.81;5116410;28;20093;-69
2023/06/16 00:12:36;;;;;;;10.38;4.45;;;;;;;18.18;78.40;95964.97;5116402;27;20105;-66
2023/06/16 00:15:04;;;;;;;6.85;4.88;;;;;;;18.19;78.70;95962.19;5115545;28;20098;-68
2023/06/16 00:17:31;;;;;;;5.28;4.18;;;;;;;18.22;77.90;95960.28;5116201;28;20124;-69
2023/06/16 00:19:58;;;;;;;5.75;4.80;;;;;;;18.21;77.95;95954.13;5116119;28;20048;-67
2023/06/16 00:22:25;;;;;;;6.85;4.28;;;;;;;18.23;78.11;95964.59;5115914;28;20044;-67
2023/06/16 00:24:53;;;;;;;5.18;4.60;;;;;;;18.29;77.85;95964.13;5116052;28;20047;-69
2023/06/16 00:27:22;;;;;;;5.30;4.80;;;;;;;18.31;77.50;95959.56;5115974;28;20044;-66
2023/06/16 00:29:50;;;;;;;4.55;4.13;;;;;;;18.27;77.76;95953.66;5116115;28;20044;-68
2023/06/16 00:32:17;;;;;;;5.00;4.25;;;;;;;18.17;77.78;95950.06;5115947;28;20071;-68
2023/06/16 00:34:44;;;;;;;7.22;4.78;;;;;;;18.11;78.47;95945.22;5115851;27;20116;-67
2023/06/16 00:37:11;;;;;;;7.47;4.80;;;;;;;18.03;78.02;95944.00;5115896;27;20055;-67
2023/06/16 00:39:38;;;;;;;6.00;4.28;;;;;;;18.00;78.25;95941.59;5115792;28;20130;-68
2023/06/16 00:42:06;;;;;;;6.47;4.95;;;;;;;18.04;78.88;95935.13;5115731;28;20072;-67
2023/06/16 00:44:33;;;;;;;7.57;4.35;;;;;;;18.01;78.64;95932.72;5115634;28;20122;-67
2023/06/16 00:47:03;;;;;;;11.50;4.35;;;;;;;18.02;78.49;95936.19;5115641;28;20073;-67
2023/06/16 00:49:30;;;;;;;8.18;4.30;;;;;;;18.05;78.06;95941.25;5115565;28;20051;-67
2023/06/16 00:51:59;;;;;;;6.93;4.60;;;;;;;18.06;77.72;95929.69;5115766;28;20052;-66
2023/06/16 00:54:26;;;;;;;6.63;4.65;;;;;;;18.05;78.91;95925.34;5115574;28;20469;-68
2023/06/16 00:56:53;;;;;;;7.70;4.38;;;;;;;18.06;78.53;95921.75;5115366;28;20382;-66
2023/06/16 00:59:23;;;;;;;7.22;5.03;;;;;;;17.97;78.07;95923.31;5115468;28;20482;-67
2023/06/16 01:01:50;;;;;;;6.88;4.82;;;;;;;17.96;79.01;95899.63;5115342;28;20065;-67
2023/06/16 01:04:20;;;;;;;14.93;5.22;;;;;;;17.89;79.35;95899.28;5115216;28;20051;-67
2023/06/16 01:06:57;;;;;;;10.15;5.00;;;;;;;17.90;80.86;95893.84;5115305;28;20085;-67
2023/06/16 01:09:33;;;;;;;10.55;5.82;;;;;;;17.78;81.55;95889.50;5115363;28;20135;-66
2023/06/16 01:12:11;;;;;;;5.70;4.82;;;;;;;17.78;83.08;95894.81;5115111;28;20040;-66
2023/06/16 01:14:47;;;;;;;8.10;5.57;;;;;;;17.71;83.59;95894.44;5115026;28;20082;-67
2023/06/16 01:17:16;;;;;;;7.22;5.40;;;;;;;17.76;84.06;95902.03;5114985;27;20055;-66
2023/06/16 01:19:50;;;;;;;8.35;5.30;;;;;;;17.77;84.24;95906.34;5115049;28;20044;-67
2023/06/16 01:22:33;;;;;;;6.28;5.07;;;;;;;17.80;85.83;95921.97;5114845;28;20051;-66
2023/06/16 01:25:05;;;;;;;6.97;6.28;;;;;;;17.73;87.67;95934.00;5114872;28;20050;-67
2023/06/16 01:27:33;;;;;;;8.85;5.63;;;;;;;17.76;87.33;95931.13;5114885;28;20549;-67
2023/06/16 01:30:02;;;;;;;7.85;5.85;;;;;;;17.80;87.42;95935.22;5114705;28;20566;-66
2023/06/16 01:32:30;;;;;;;8.02;5.70;;;;;;;17.76;86.85;95939.88;5114764;28;20082;-66
2023/06/16 01:34:59;;;;;;;7.75;6.30;;;;;;;17.71;85.77;95943.84;5114795;28;20134;-67
2023/06/16 01:37:27;;;;;;;9.23;6.18;;;;;;;17.76;85.89;95926.66;5114798;28;20075;-66
2023/06/16 01:39:55;;;;;;;6.50;5.80;;;;;;;17.78;86.68;95927.41;5114456;28;20047;-66
2023/06/16 01:42:24;;;;;;;10.02;6.15;;;;;;;17.80;86.54;95924.63;5114522;28;20075;-66
2023/06/16 01:44:51;;;;;;;7.47;5.75;;;;;;;17.82;86.46;95920.03;5114379;28;20130;-67
2023/06/16 01:47:19;;;;;;;5.85;5.32;;;;;;;17.72;85.98;95908.50;5114403;28;20096;-66
2023/06/16 01:49:46;;;;;;;7.80;5.78;;;;;;;17.56;86.82;95904.41;5114335;28;20054;-66
2023/06/16 01:52:13;;;;;;;8.70;6.25;;;;;;;17.40;87.55;95907.38;5114459;28;20047;-66
2023/06/16 01:54:40;;;;;;;9.50;5.72;;;;;;;17.29;87.94;95906.41;5114421;28;20134;-67
2023/06/16 01:57:07;;;;;;;7.38;6.63;;;;;;;17.21;88.57;95908.75;5114184;28;20051;-66
2023/06/16 01:59:36;;;;;;;9.68;6.50;;;;;;;17.21;88.65;95905.25;5114173;28;20201;-66
2023/06/16 02:02:08;;;;;;;7.13;5.68;;;;;;;17.25;89.39;95906.75;5114157;28;20122;-66
2023/06/16 02:04:39;;;;;;;11.52;5.97;;;;;;;17.24;87.88;95911.16;5114033;28;20409;-68
2023/06/16 02:07:11;;;;;;;6.55;5.50;;;;;;;17.21;87.44;95913.19;5114023;28;20043;-66
2023/06/16 02:09:39;;;;;;;9.75;6.05;;;;;;;17.21;86.92;95911.41;5114033;28;20126;-66
2023/06/16 02:12:11;;;;;;;10.40;6.10;;;;;;;17.20;87.37;95909.72;5113988;28;20051;-66
2023/06/16 02:14:41;;;;;;;8.90;6.30;;;;;;;17.16;87.57;95910.91;5114043;28;20127;-67
2023/06/16 02:17:09;;;;;;;7.63;5.97;;;;;;;17.04;87.33;95899.44;5113975;28;20044;-67
2023/06/16 02:19:38;;;;;;;7.28;6.43;;;;;;;16.88;88.30;95897.91;5113913;28;20048;-65
2023/06/16 02:22:05;;;;;;;7.43;5.80;;;;;;;16.80;89.06;95903.75;5113865;28;20130;-66
2023/06/16 02:24:32;;;;;;;6.43;5.82;;;;;;;16.75;89.05;95902.41;5113858;28;20126;-66
2023/06/16 02:27:00;;;;;;;10.15;7.03;;;;;;;16.77;89.43;95900.50;5113789;28;20067;-65
2023/06/16 02:29:27;;;;;;;12.32;6.20;;;;;;;16.78;89.82;95910.13;5113757;28;20048;-66
2023/06/16 02:31:55;;;;;;;8.25;6.05;;;;;;;16.75;88.76;95910.34;5113831;28;20139;-65
2023/06/16 02:34:22;;;;;;;8.05;6.55;;;;;;;16.71;88.57;95908.88;5113732;28;20108;-66
2023/06/16 02:36:50;;;;;;;6.82;6.00;;;;;;;16.72;89.11;95903.50;5113749;28;20054;-66
2023/06/16 02:39:18;;;;;;;13.55;6.40;;;;;;;16.69;89.39;95903.72;5113159;28;20083;-65
2023/06/16 02:41:45;;;;;;;8.02;6.47;;;;;;;16.63;89.62;95906.78;5113407;28;20131;-66
2023/06/16 02:44:12;;;;;;;9.20;6.18;;;;;;;16.58;89.46;95896.56;5113472;28;20134;-66
2023/06/16 02:46:39;;;;;;;8.20;6.50;;;;;;;16.55;89.73;95899.41;5113561;28;20047;-65
2023/06/16 02:49:08;;;;;;;11.80;6.32;;;;;;;16.52;89.75;95903.13;5113554;28;20067;-65
2023/06/16 02:51:35;;;;;;;9.23;6.30;;;;;;;16.55;89.99;95897.63;5113620;28;20050;-66
2023/06/16 02:54:02;;;;;;;9.15;5.78;;;;;;;16.55;90.14;95902.06;5113441;28;20083;-66
2023/06/16 02:56:29;;;;;;;8.93;6.57;;;;;;;16.53;90.24;95902.16;5113517;28;20079;-65
2023/06/16 02:58:56;;;;;;;9.77;6.95;;;;;;;16.50;90.59;95894.47;5113422;28;20055;-67
2023/06/16 03:01:29;;;;;;;8.25;6.80;;;;;;;16.53;90.72;95896.06;5113434;28;20044;-66
2023/06/16 03:03:56;;;;;;;10.65;6.95;;;;;;;16.51;90.27;95893.53;5113415;28;20047;-66
2023/06/16 03:06:29;;;;;;;7.95;6.10;;;;;;;16.45;90.00;95893.13;5113429;28;20093;-65
2023/06/16 03:08:57;;;;;;;7.95;6.22;;;;;;;16.45;90.73;95891.34;5113365;28;20127;-66
2023/06/16 03:11:24;;;;;;;6.53;5.70;;;;;;;16.39;90.25;95894.41;5113366;28;20079;-67
2023/06/16 03:13:51;;;;;;;9.55;6.07;;;;;;;16.42;90.98;95896.84;5113262;28;20466;-65
2023/06/16 03:16:20;;;;;;;10.65;6.18;;;;;;;16.45;90.65;95896.63;5113311;28;20058;-66
2023/06/16 03:18:48;;;;;;;6.45;5.88;;;;;;;16.43;90.45;95890.59;5113410;28;20458;-65
2023/06/16 03:21:16;;;;;;;6.93;6.20;;;;;;;16.35;90.74;95888.53;5113303;28;20051;-66
2023/06/16 03:23:45;;;;;;;6.78;6.07;;;;;;;16.36;91.39;95890.22;5113227;28;20048;-66
2023/06/16 03:26:12;;;;;;;11.05;6.75;;;;;;;16.34;91.75;95880.72;5113136;28;20055;-65
2023/06/16 03:28:40;;;;;;;7.22;5.95;;;;;;;16.40;91.12;95888.16;5113199;28;20515;-66
2023/06/16 03:31:08;;;;;;;9.50;6.38;;;;;;;16.42;91.31;95884.50;5113344;28;20396;-67
2023/06/16 03:33:35;;;;;;;6.57;5.20;;;;;;;16.42;90.29;95879.22;5113200;28;20054;-65
2023/06/16 03:36:02;;;;;;;7.20;5.72;;;;;;;16.45;89.93;95885.22;5113485;28;20044;-67
2023/06/16 03:38:29;;;;;;;6.47;5.85;;;;;;;16.44;89.84;95883.53;5113220;28;20047;-66
2023/06/16 03:40:58;;;;;;;8.07;6.00;;;;;;;16.45;89.58;95879.94;5112870;28;20055;-67
2023/06/16 03:43:26;;;;;;;9.35;5.55;;;;;;;16.45;89.50;95880.78;5113075;28;20485;-65
2023/06/16 03:45:53;;;;;;;6.40;5.10;;;;;;;16.52;88.02;95883.81;5113215;28;20092;-66
2023/06/16 03:48:20;;;;;;;9.73;5.45;;;;;;;16.59;87.50;95884.22;5113007;28;20408;-65
2023/06/16 03:50:48;;;;;;;6.32;5.30;;;;;;;16.67;88.21;95885.34;5114109;28;20481;-67
2023/06/16 03:53:15;;;;;;;5.70;4.78;;;;;;;16.78;87.43;95879.28;5116829;28;20039;-65
2023/06/16 03:55:43;;;;;;;6.72;5.38;;;;;;;16.85;87.44;95879.66;5116602;28;20101;-66
2023/06/16 03:58:13;;;;;;;5.00;4.57;;;;;;;16.89;87.58;95885.56;5116786;28;20120;-66
2023/06/16 04:00:40;;;;;;;5.63;5.07;;;;;;;16.91;86.84;95889.75;5116700;28;20116;-66
2023/06/16 04:03:08;;;;;;;7.55;5.25;;;;;;;16.98;87.30;95890.13;5116575;28;20489;-66
2023/06/16 04:05:36;;;;;;;10.65;5.75;;;;;;;17.07;87.62;95886.03;5116337;27;20051;-66
2023/06/16 04:08:05;;;;;;;5.40;4.40;;;;;;;17.18;86.39;95890.47;5116520;27;20820;-66
2023/06/16 04:10:38;;;;;;;9.68;4.25;;;;;;;17.27;84.23;95886.31;5116328;28;20051;-66
2023/06/16 04:13:05;;;;;;;4.60;4.20;;;;;;;17.42;85.38;95892.22;5116207;27;20413;-67
2023/06/16 04:15:34;;;;;;;5.47;4.97;;;;;;;17.71;85.76;95883.03;5116388;28;20379;-65
2023/06/16 04:18:01;;;;;;;4.55;3.92;;;;;;;18.13;83.69;95887.75;5116275;28;20044;-66
2023/06/16 04:20:29;;;;;;;4.15;3.58;;;;;;;18.65;81.36;95887.16;5116123;28;20086;-64
2023/06/16 04:22:56;;;;;;;3.92;3.55;;;;;;;19.01;78.47;95886.94;5116210;28;20050;-66
2023/06/16 04:25:23;;;;;;;3.60;2.90;;;;;;;19.17;76.09;95890.03;5115897;28;20455;-65
2023/06/16 04:27:50;;;;;;;4.90;3.53;;;;;;;19.28;75.16;95891.78;5116122;28;20054;-67
2023/06/16 04:30:22;;;;;;;4.43;3.28;;;;;;;19.41;75.92;95888.94;5115887;28;20047;-67
2023/06/16 04:32:50;;;;;;;3.95;3.55;;;;;;;19.51;74.32;95888.97;5115975;28;20054;-67
2023/06/16 04:35:17;;;;;;;7.15;3.28;;;;;;;19.65;72.49;95890.47;5115996;28;20087;-66
2023/06/16 04:37:44;;;;;;;3.70;3.40;;;;;;;19.84;72.49;95902.16;5115940;28;20097;-66
2023/06/16 04:40:12;;;;;;;6.55;3.60;;;;;;;19.96;73.37;95894.97;5115659;28;20043;-67
2023/06/16 04:42:39;;;;;;;7.28;3.38;;;;;;;20.03;74.63;95898.78;5115827;28;20093;-65
2023/06/16 04:45:07;;;;;;;4.00;3.60;;;;;;;20.07;73.67;95891.38;5115673;28;20050;-66
2023/06/16 04:47:35;;;;;;;3.80;3.40;;;;;;;20.08;72.72;95887.78;5115688;28;20490;-66
2023/06/16 04:50:04;;;;;;;5.18;4.00;;;;;;;20.08;71.57;95890.44;5115603;28;20051;-66
2023/06/16 04:52:31;;;;;;;5.93;3.90;;;;;;;20.06;73.17;95890.56;5115574;28;20047;-66
2023/06/16 04:54:59;;;;;;;5.07;3.80;;;;;;;20.07;73.80;95886.09;5115523;28;20051;-66
2023/06/16 04:57:26;;;;;;;5.97;4.07;;;;;;;20.23;73.16;95882.09;5115542;28;20044;-66
2023/06/16 04:59:53;;;;;;;3.63;3.03;;;;;;;20.58;71.57;95880.78;5115522;28;20079;-66
2023/06/16 05:02:20;;;;;;;8.45;3.58;;;;;;;20.94;71.35;95880.28;5115015;28;20051;-66
2023/06/16 05:04:48;;;;;;;3.42;3.13;;;;;;;21.43;69.66;95888.22;5115297;27;20051;-66
2023/06/16 05:07:16;;;;;;;4.90;3.28;;;;;;;21.69;65.84;95884.13;5115433;28;20050;-66
2023/06/16 05:09:43;;;;;;;7.85;3.22;;;;;;;21.90;66.24;95881.28;5115294;28;20039;-66
2023/06/16 05:12:12;;;;;;;4.15;3.35;;;;;;;22.00;64.21;95889.22;5115160;28;20058;-66
2023/06/16 05:14:39;;;;;;;6.28;3.20;;;;;;;22.10;65.38;95878.56;5115277;28;20052;-66
2023/06/16 05:17:06;;;;;;;5.65;3.45;;;;;;;22.12;66.39;95879.22;5115092;28;20051;-66
2023/06/16 05:19:34;;;;;;;4.63;3.30;;;;;;;22.04;66.34;95874.66;5115087;28;20052;-67
2023/06/16 05:22:01;;;;;;;4.32;3.30;;;;;;;21.95;66.70;95873.69;5115011;28;20126;-67
2023/06/16 05:24:30;;;;;;;3.47;3.17;;;;;;;21.98;64.89;95877.91;5114886;28;20083;-65
2023/06/16 05:26:57;;;;;;;5.22;3.53;;;;;;;22.02;65.13;95879.28;5114919;28;20043;-66
2023/06/16 05:29:24;;;;;;;4.88;3.88;;;;;;;22.08;66.62;95875.19;5114933;28;20048;-66
2023/06/16 05:31:51;;;;;;;11.32;4.35;;;;;;;22.08;67.47;95875.19;5114848;27;20043;-66
2023/06/16 05:34:18;;;;;;;4.45;4.05;;;;;;;22.08;65.63;95870.72;5114875;28;20116;-66
2023/06/16 05:36:45;;;;;;;4.70;3.50;;;;;;;22.21;65.00;95877.50;5114837;28;20044;-66
2023/06/16 05:39:13;;;;;;;9.20;3.72;;;;;;;22.37;65.19;95886.69;5114665;28;20048;-66
2023/06/16 05:41:42;;;;;;;8.07;4.10;;;;;;;22.43;62.92;95884.25;5114360;28;20069;-66
2023/06/16 05:44:09;;;;;;;6.78;3.75;;;;;;;22.55;62.73;95887.56;5114522;28;20455;-65
2023/06/16 05:46:37;;;;;;;5.47;3.78;;;;;;;22.67;63.54;95882.88;5114673;28;20444;-66
2023/06/16 05:49:04;;;;;;;4.68;4.22;;;;;;;22.72;64.01;95879.78;5114456;28;20072;-66
2023/06/16 05:51:31;;;;;;;6.25;3.38;;;;;;;22.65;61.14;95887.53;5114396;28;20043;-66
2023/06/16 05:53:58;;;;;;;8.82;3.65;;;;;;;22.63;60.66;95886.03;5114334;28;20044;-67
2023/06/16 05:56:26;;;;;;;8.23;3.83;;;;;;;22.50;59.49;95884.53;5114367;28;20048;-67
2023/06/16 05:58:54;;;;;;;4.75;3.20;;;;;;;22.28;59.99;95883.09;5114430;28;20050;-66
2023/06/16 06:01:21;;;;;;;4.50;3.75;;;;;;;22.37;61.35;95882.22;5114404;28;20122;-66
2023/06/16 06:03:49;;;;;;;5.93;3.58;;;;;;;22.67;60.55;95882.88;5114233;28;20127;-66
2023/06/16 06:06:16;;;;;;;7.00;3.80;;;;;;;23.08;61.45;95886.94;5114127;28;20055;-66
2023/06/16 06:08:43;;;;;;;3.88;3.10;;;;;;;23.59;58.18;95889.91;5114125;28;20122;-66
2023/06/16 06:11:11;;;;;;;6.68;3.15;;;;;;;23.89;56.23;95883.38;5113980;28;20054;-66
2023/06/16 06:13:38;;;;;;;8.90;3.40;;;;;;;23.95;53.40;95878.25;5113355;28;20047;-66
2023/06/16 06:16:06;;;;;;;6.28;2.90;;;;;;;23.92;52.54;95883.06;5114062;28;20079;-66
2023/06/16 06:18:34;;;;;;;4.60;3.13;;;;;;;24.21;51.47;95892.63;5114054;28;20043;-66
2023/06/16 06:21:01;;;;;;;6.38;2.53;;;;;;;24.03;51.27;95896.16;5113865;28;20047;-67
2023/06/16 06:23:28;;;;;;;4.68;3.28;;;;;;;24.08;51.34;95891.16;5113924;28;20043;-66
2023/06/16 06:25:55;;;;;;;3.80;2.78;;;;;;;24.27;52.27;95893.78;5113860;28;20142;-66
2023/06/16 06:28:24;;;;;;;5.78;3.10;;;;;;;24.39;49.80;95897.03;5113903;28;20131;-66
2023/06/16 06:30:51;;;;;;;4.38;2.83;;;;;;;24.67;49.00;95891.41;5113769;28;20043;-66
2023/06/16 06:33:20;;;;;;;4.65;3.40;;;;;;;24.87;46.72;95889.34;5113770;28;20051;-67
2023/06/16 06:35:48;;;;;;;4.00;2.60;;;;;;;24.92;45.89;95889.66;5113864;28;20451;-67
2023/06/16 06:38:17;;;;;;;4.97;2.35;;;;;;;24.77;46.08;95885.94;5113724;28;20048;-65
2023/06/16 06:40:44;;;;;;;4.22;2.35;;;;;;;25.20;47.30;95884.00;5113334;28;20047;-68
2023/06/16 06:43:12;;;;;;;8.48;2.42;;;;;;;25.65;45.68;95882.88;5113720;28;20039;-66
2023/06/16 06:45:41;;;;;;;5.68;2.45;;;;;;;25.97;46.24;95881.13;5113594;28;20052;-66
2023/06/16 06:48:08;;;;;;;8.82;2.03;;;;;;;26.32;44.34;95880.88;5113620;28;20501;-67
2023/06/16 06:50:37;;;;;;;3.85;2.35;;;;;;;26.54;46.41;95881.94;5113474;28;20051;-68
2023/06/16 06:53:04;;;;;;;4.38;2.47;;;;;;;25.97;43.21;95875.75;5113533;28;20135;-67
2023/06/16 06:55:31;;;;;;;4.22;2.50;;;;;;;25.83;44.64;95870.09;5113500;28;20044;-68
2023/06/16 06:57:58;;;;;;;3.70;2.30;;;;;;;26.11;46.53;95880.44;5113691;28;20147;-67
2023/06/16 07:00:25;;;;;;;4.47;2.30;;;;;;;26.18;43.84;95877.03;5113449;28;20080;-66
2023/06/16 07:02:52;;;;;;;9.50;2.85;;;;;;;26.20;45.05;95877.69;5113450;28;20094;-68
2023/06/16 07:05:19;;;;;;;6.30;2.25;;;;;;;26.33;44.46;95877.16;5113458;28;20048;-67
2023/06/16 07:07:48;;;;;;;4.63;2.60;;;;;;;26.65;43.17;95871.81;5113406;28;20071;-67
2023/06/16 07:10:15;;;;;;;2.58;2.13;;;;;;;26.90;43.20;95879.75;5113613;28;20135;-68
2023/06/16 07:12:42;;;;;;;3.13;2.30;;;;;;;26.79;41.13;95870.25;5113380;28;20131;-68
2023/06/16 07:15:10;;;;;;;6.80;2.38;;;;;;;26.87;40.67;95872.88;5113446;28;20047;-68
2023/06/16 07:17:37;;;;;;;4.15;2.58;;;;;;;27.16;41.20;95878.56;5113473;28;20108;-67
2023/06/16 07:20:05;;;;;;;5.45;2.30;;;;;;;27.20;40.43;95877.19;5113253;28;20048;-66
2023/06/16 07:22:33;;;;;;;3.58;2.00;;;;;;;26.85;39.41;95872.22;5113419;28;20043;-68
2023/06/16 07:25:01;;;;;;;2.67;2.10;;;;;;;26.62;40.52;95865.81;5114843;28;20043;-66
2023/06/16 07:27:28;;;;;;;6.07;1.92;;;;;;;26.59;40.23;95865.31;5117374;28;20051;-69
2023/06/16 07:29:55;;;;;;;3.03;2.28;;;;;;;26.53;43.57;95861.50;5117281;28;20048;-68
2023/06/16 07:32:22;;;;;;;2.75;2.20;;;;;;;26.57;42.03;95870.88;5117126;28;20054;-67
2023/06/16 07:34:50;;;;;;;2.72;1.80;;;;;;;26.26;41.11;95868.97;5117128;28;20048;-66
2023/06/16 07:37:17;;;;;;;3.75;1.95;;;;;;;26.45;41.53;95866.91;5117019;28;20082;-66
2023/06/16 07:39:44;;;;;;;4.18;2.45;;;;;;;26.66;41.93;95871.66;5117035;28;20047;-67
2023/06/16 07:42:16;;;;;;;6.07;2.42;;;;;;;27.06;43.00;95868.09;5116741;28;20443;-67
2023/06/16 07:44:43;;;;;;;6.63;2.40;;;;;;;27.35;41.23;95861.97;5116841;28;20047;-68
2023/06/16 07:47:11;;;;;;;5.93;2.28;;;;;;;27.14;41.48;95872.56;5116875;28;20040;-67
2023/06/16 07:49:39;;;;;;;2.42;2.15;;;;;;;27.14;42.10;95870.69;5116792;28;20052;-67
2023/06/16 07:52:07;;;;;;;2.83;2.15;;;;;;;27.10;39.75;95870.25;5117210;28;20447;-68
2023/06/16 07:54:34;;;;;;;6.53;2.13;;;;;;;27.35;40.82;95875.41;5116936;28;20048;-69
2023/06/16 07:57:01;;;;;;;2.88;2.10;;;;;;;27.29;43.36;95878.81;5116611;28;20509;-65
2023/06/16 07:59:30;;;;;;;2.75;1.92;;;;;;;27.43;41.65;95868.28;5116776;28;20477;-67
2023/06/16 08:01:57;;;;;;;3.10;2.33;;;;;;;27.62;44.33;95869.63;5116566;28;20058;-66
2023/06/16 08:04:29;;;;;;;5.00;2.28;;;;;;;27.50;42.31;95875.44;5116691;28;20052;-69
2023/06/16 08:06:56;;;;;;;2.08;1.80;;;;;;;27.49;41.78;95873.78;5116556;27;20069;-66
2023/06/16 08:09:23;;;;;;;2.78;2.15;;;;;;;27.70;40.89;95876.81;5116476;28;20089;-68
2023/06/16 08:11:51;;;;;;;3.00;2.10;;;;;;;27.66;40.00;95879.00;5116404;28;20048;-66
2023/06/16 08:14:19;;;;;;;2.10;1.73;;;;;;;27.82;42.48;95871.81;5116451;28;20047;-66
2023/06/16 08:16:47;;;;;;;2.63;2.00;;;;;;;28.20;44.48;95870.91;5116569;28;20082;-66
2023/06/16 08:19:15;;;;;;;4.20;2.13;;;;;;;28.46;40.47;95874.97;5116491;28;20079;-67
2023/06/16 08:21:42;;;;;;;4.97;2.17;;;;;;;27.76;40.14;95870.72;5116244;28;20404;-67
2023/06/16 08:24:09;;;;;;;3.30;2.03;;;;;;;27.56;41.81;95878.41;5116312;28;20486;-68
2023/06/16 08:26:37;;;;;;;3.42;2.17;;;;;;;27.33;43.32;95871.25;5116203;28;20378;-67
2023/06/16 08:29:04;;;;;;;6.45;2.30;;;;;;;27.23;43.59;95869.63;5116101;28;20474;-68
2023/06/16 08:31:32;;;;;;;2.72;2.03;;;;;;;27.22;44.83;95876.03;5116043;28;20058;-67
2023/06/16 08:34:01;;;;;;;7.03;2.15;;;;;;;27.18;45.30;95877.38;5115894;28;20089;-67
2023/06/16 08:36:28;;;;;;;3.58;2.22;;;;;;;27.02;42.35;95883.69;5115298;28;20059;-67
2023/06/16 08:38:56;;;;;;;5.15;2.60;;;;;;;26.75;43.57;95873.28;5115883;28;20051;-67
2023/06/16 08:41:26;;;;;;;5.63;2.78;;;;;;;26.68;45.02;95876.84;5115512;28;20052;-68
2023/06/16 08:43:55;;;;;;;3.07;2.63;;;;;;;26.35;43.97;95876.00;5115867;28;20054;-68
2023/06/16 08:46:23;;;;;;;3.63;2.67;;;;;;;26.04;46.33;95866.06;5115715;28;20105;-68
2023/06/16 08:48:51;;;;;;;4.63;2.90;;;;;;;26.28;44.07;95871.47;5115625;28;20054;-66
2023/06/16 08:51:24;;;;;;;4.72;3.00;;;;;;;25.94;44.70;95865.38;5115659;28;20048;-66
2023/06/16 08:53:57;;;;;;;2.72;2.35;;;;;;;26.06;44.90;95860.50;5115616;28;20046;-67
2023/06/16 08:56:26;;;;;;;5.30;3.03;;;;;;;26.38;46.08;95858.72;5115533;28;20408;-67
2023/06/16 08:58:54;;;;;;;3.90;2.53;;;;;;;26.57;43.02;95864.66;5115697;27;20043;-66
2023/06/16 09:01:24;;;;;;;3.00;2.22;;;;;;;26.25;42.66;95867.31;5115453;28;20546;-69
2023/06/16 09:03:52;;;;;;;5.88;2.67;;;;;;;25.80;43.64;95862.44;5115343;28;20054;-66
2023/06/16 09:06:20;;;;;;;3.10;2.55;;;;;;;25.65;44.55;95864.13;5115451;27;20055;-65
2023/06/16 09:08:48;;;;;;;5.68;2.50;;;;;;;25.69;45.94;95852.91;5115343;27;20441;-66
2023/06/16 09:11:23;;;;;;;6.55;2.88;;;;;;;25.75;45.75;95851.38;5115278;28;20410;-67
2023/06/16 09:13:52;;;;;;;4.20;2.63;;;;;;;25.81;46.26;95852.53;5115211;28;20044;-67
2023/06/16 09:16:21;;;;;;;7.60;2.92;;;;;;;25.47;44.78;95851.75;5115177;28;20051;-68
2023/06/16 09:18:49;;;;;;;6.90;2.45;;;;;;;25.27;45.56;95856.59;5115074;28;20090;-68
2023/06/16 09:21:22;;;;;;;7.97;3.00;;;;;;;25.19;46.42;95860.94;5115181;28;20050;-66
2023/06/16 09:23:57;;;;;;;5.80;3.05;;;;;;;25.23;48.12;95861.47;5115201;28;20051;-67
2023/06/16 09:26:29;;;;;;;8.80;3.20;;;;;;;25.21;48.95;95856.28;5115169;28;20138;-67
2023/06/16 09:28:57;;;;;;;9.00;3.30;;;;;;;25.18;50.10;95864.63;5114867;28;20537;-68
2023/06/16 09:31:27;;;;;;;9.02;3.30;;;;;;;25.33;48.15;95861.28;5114969;28;20048;-66
2023/06/16 09:34:04;;;;;;;5.18;2.92;;;;;;;25.34;46.44;95866.47;5114852;28;20134;-66
2023/06/16 09:36:33;;;;;;;3.92;3.00;;;;;;;25.31;48.03;95864.13;5114853;28;20104;-69
2023/06/16 09:39:00;;;;;;;6.30;3.10;;;;;;;25.30;49.53;95864.28;5114779;27;20043;-68
2023/06/16 09:41:27;;;;;;;7.38;3.40;;;;;;;25.16;49.50;95861.28;5114319;28;20135;-66
2023/06/16 09:44:00;;;;;;;7.38;3.63;;;;;;;25.16;48.98;95863.94;5114631;28;20552;-66
2023/06/16 09:46:28;;;;;;;5.53;3.95;;;;;;;25.08;50.33;95867.44;5114425;28;20043;-68
2023/06/16 09:48:55;;;;;;;6.25;3.90;;;;;;;24.90;50.84;95869.44;5113528;28;20048;-68
2023/06/16 09:51:23;;;;;;;4.78;3.78;;;;;;;24.88;52.63;95860.75;5114477;28;20061;-68
2023/06/16 09:53:53;;;;;;;17.40;4.85;;;;;;;24.77;52.06;95875.25;5114540;28;20097;-68
2023/06/16 09:56:20;;;;;;;7.63;4.38;;;;;;;24.31;51.25;95874.63;5114411;28;20051;-65
2023/06/16 09:58:48;;;;;;;11.60;5.22;;;;;;;24.09;51.19;95882.19;5114390;28;20054;-68
2023/06/16 10:01:19;;;;;;;5.93;5.32;;;;;;;23.91;53.97;95876.91;5114286;28;20477;-69
2023/06/16 10:03:51;;;;;;;9.93;5.38;;;;;;;23.93;55.39;95872.22;5114369;28;20375;-67
2023/06/16 10:06:20;;;;;;;10.88;5.70;;;;;;;23.85;54.24;95873.06;5114143;28;20497;-67
2023/06/16 10:08:49;;;;;;;8.85;6.07;;;;;;;23.73;54.67;95874.31;5114268;28;20052;-68
2023/06/16 10:11:20;;;;;;;9.20;5.93;;;;;;;23.29;55.98;95875.97;5114320;28;20043;-66
2023/06/16 10:13:52;;;;;;;9.90;5.93;;;;;;;23.07;57.64;95880.78;5114107;28;20061;-67
2023/06/16 10:16:23;;;;;;;14.63;6.50;;;;;;;22.96;57.05;95870.34;5114010;28;20079;-66
2023/06/16 10:18:53;;;;;;;7.97;6.97;;;;;;;22.93;58.28;95868.81;5114057;28;20125;-67
2023/06/16 10:21:20;;;;;;;13.10;6.93;;;;;;;22.88;59.69;95872.94;5114180;28;20049;-66
2023/06/16 10:23:48;;;;;;;10.27;7.57;;;;;;;22.76;59.82;95862.50;5114076;28;20058;-66
2023/06/16 10:26:15;;;;;;;13.40;7.60;;;;;;;22.84;62.21;95861.72;5113815;28;20044;-66
2023/06/16 10:28:45;;;;;;;11.88;7.07;;;;;;;22.74;62.67;95848.50;5113983;27;20075;-68
2023/06/16 10:31:14;;;;;;;18.25;7.50;;;;;;;22.62;62.81;95858.53;5113787;28;20432;-67
2023/06/16 10:33:59;;;;;;;10.95;7.50;;;;;;;22.45;64.85;95857.47;5113705;28;20052;-68
2023/06/16 10:36:30;;;;;;;7.75;6.93;;;;;;;22.49;63.62;95850.88;5113760;28;20043;-66
2023/06/16 10:38:58;;;;;;;;;;;;;;;22.45;65.05;95839.66;5114104;28;20143;-66
2023/06/16 10:41:27;;;;;;;6.57;5.40;;;;;;;22.47;60.90;95847.53;5113474;28;19958;-65
2023/06/16 10:43:55;;;;;;;6.07;5.28;;;;;;;22.60;61.67;95844.50;5113629;28;20044;-68
2023/06/16 10:46:22;;;;;;;8.82;6.38;;;;;;;22.79;63.28;95837.38;5113644;28;20409;-66
2023/06/16 10:49:18;;;;;;;8.23;6.05;;;;;;;23.36;59.44;95841.50;5113718;28;20039;-67
2023/06/16 10:51:50;;;;;;;8.07;5.68;;;;;;;23.67;60.32;95830.41;5113642;28;20059;-67
2023/06/16 10:54:36;;;;;;;9.30;5.60;;;;;;;24.13;58.19;95825.75;5113539;28;20047;-68
2023/06/16 10:57:05;;;;;;;7.00;5.55;;;;;;;24.14;57.94;95828.28;5113478;28;20050;-67
2023/06/16 10:59:53;;;;;;;7.70;5.30;;;;;;;23.92;56.03;95827.00;5114421;28;20119;-66
2023/06/16 11:02:23;;;;;;;10.43;4.45;;;;;;;23.90;58.21;95813.81;5117756;28;20096;-66
2023/06/16 11:05:12;;;;;;;7.25;4.57;;;;;;;23.92;59.39;95803.81;5117929;28;20044;-68
2023/06/16 11:07:40;;;;;;;7.82;5.05;;;;;;;24.00;56.04;95800.34;5117567;28;20056;-68
2023/06/16 11:10:09;;;;;;;10.82;5.30;;;;;;;24.06;59.22;95797.03;5117694;28;20134;-67
2023/06/16 11:12:36;;;;;;;7.32;4.68;;;;;;;23.84;55.68;95783.25;5117607;28;20073;-67
2023/06/16 11:15:06;;;;;;;10.27;5.15;;;;;;;23.84;57.55;95779.75;5117374;28;20089;-66
2023/06/16 11:17:34;;;;;;;6.30;4.20;;;;;;;23.76;57.22;95775.22;5117561;28;20075;-67
2023/06/16 11:20:05;;;;;;;9.80;4.90;;;;;;;23.65;57.78;95773.66;5117383;28;20141;-67
2023/06/16 11:22:35;;;;;;;12.10;4.60;;;;;;;23.61;58.72;95774.97;5117354;28;20511;-67
2023/06/16 11:25:03;;;;;;;5.90;4.82;;;;;;;23.49;58.32;95769.09;5117264;28;20051;-68
2023/06/16 11:27:31;;;;;;;7.10;4.50;;;;;;;23.56;59.31;95762.13;5117198;28;20051;-66
2023/06/16 11:29:59;;;;;;;10.75;4.70;;;;;;;23.67;58.67;95757.50;5117558;28;20135;-66
2023/06/16 11:32:31;;;;;;;14.10;5.03;;;;;;;23.72;58.60;95748.00;5117231;28;20493;-67
2023/06/16 11:35:00;;;;;;;8.48;3.80;;;;;;;23.60;57.75;95747.44;5117262;28;20463;-66
2023/06/16 11:37:40;;;;;;;7.40;4.18;;;;;;;23.55;58.45;95744.44;5117136;28;20127;-66